Cartagena, Colombia

5:02 PM COT on August 21, 2014 (GMT -0500)
Rafael Nunez | Change Station
CLOSE
Current Station
Airport
Location: Cartagena,
Elevation: 39 ft
Nearby Weather Stations

Elev 39 ft 10.45 °N, 75.52 °W | Updated 2 minutes ago

Scattered Clouds
Scattered Clouds
86 °F
Feels Like 97 °F
N
9
Wind Variable Wind from North

Today
High -- | Low -- °F
--% Chance of Precip.
Yesterday
High -- | Low -- °F
Precip. -- in
5:52 AM 6:17 PM
Waning Crescent, 12% visible
Pressure 29.81 in
Visibility 6.2 miles
Clouds Scattered Clouds 1500 ft
Scattered Clouds 7000 ft
Heat Index 97 °F
Dew Point 77 °F
Humidity 74%
Rainfall 0.00 in
Snow Depth Not available.
UV 1 out of 12
Pollen Not available.
Air Quality Not available.
Flu Activity Not available.
METAR SKCG 212200Z 01008KT 9999 SCT015 SCT070 30/25 A2981

More Conditions Fewer Conditions

Pressure 29.81 in
Visibility 6.2 miles
Clouds Scattered Clouds 1500 ft
Scattered Clouds 7000 ft
Heat Index 97 °F
Dew Point 77 °F
Humidity 74%
Rainfall 0.00 in
Snow Depth Not available.
UV 1 out of 12
Pollen Not available.
Air Quality Not available.
Flu Activity Not available.
METAR SKCG 212200Z 01008KT 9999 SCT015 SCT070 30/25 A2981

More Conditions Fewer Conditions

10-Day Weather Forecast

Almanac

Astronomy

Aug. 21, 2014 Rise Set
Actual Time 5:52 AM COT 6:17 PM COT
Civil Twilight 5:31 AM COT 6:39 PM COT
Nautical Twilight 5:06 AM COT 7:04 PM COT
Astronomical Twilight 4:40 AM COT 7:29 PM COT
Moon 2:38 AM COT 3:29 PM COT
Length of Visible Light 13h 07m
Length of Day
12h 24m
Tomorrow will be 0m 31s shorter.
Waning Crescent, 12% of the Moon is Illuminated
Today
Waning Crescent
Aug 25
New
Sep 2
First Quarter
Sep 8
Full
Sep 15
Last Quarter

Today's Extremes

Country Highs Country Lows

Community

WunderPhotos

Upload Photos

1,746,033 photos uploaded!

WunderBlogs® & News

Nearby

Snow Depth

Not available.

Earthquake Activity

City Distance Mag. Time & Date
No recent earthquake activity has been reported nearby.
Minimum magnitude displayed is 2.5.

Coastal Water Temperatures

Place Temperature
No Stations Reporting

Nearby Weather Stations